Time;durP1;ratioP1;P1;durP2;ratioP2;P2;SDS_P1;SDS_P2;PMS_P1;PMS_P2;Temp;Humidity;BMP_temperature;BMP_pressure;BME280_temperature;BME280_humidity;BME280_pressure;Samples;Min_cycle;Max_cycle;Signal;HPM_P1;HPM_P2
2023/12/08 00:02:09;;;;;;;70.63;26.53;;;;;;;-3.03;100.00;100765.72;4187494;28;20248;-66
2023/12/08 00:04:36;;;;;;;65.53;23.17;;;;;;;-2.89;100.00;100770.53;4186949;28;21840;-65
2023/12/08 00:07:03;;;;;;;70.27;25.13;;;;;;;-2.99;100.00;100769.13;4181484;28;20238;-66
2023/12/08 00:09:31;;;;;;;63.67;23.13;;;;;;;-3.08;100.00;100764.13;4179226;28;20242;-67
2023/12/08 00:11:58;;;;;;;62.83;23.90;;;;;;;-3.14;100.00;100756.41;4185536;28;20515;-67
2023/12/08 00:14:24;;;;;;;63.40;23.10;;;;;;;-3.07;100.00;100760.56;4184373;28;20241;-67
2023/12/08 00:16:51;;;;;;;76.10;25.63;;;;;;;-3.08;100.00;100750.91;4185774;28;20264;-67
2023/12/08 00:19:17;;;;;;;68.40;25.60;;;;;;;-3.07;100.00;100752.63;4180377;28;20268;-67
2023/12/08 00:21:45;;;;;;;70.07;24.23;;;;;;;-3.12;100.00;100749.25;4170371;28;20244;-67
2023/12/08 00:24:11;;;;;;;68.67;24.97;;;;;;;-3.19;100.00;100746.81;4200922;28;20236;-69
2023/12/08 00:26:38;;;;;;;69.67;24.70;;;;;;;-3.23;100.00;100737.25;4197600;28;20234;-66
2023/12/08 00:29:05;;;;;;;64.13;23.53;;;;;;;-3.23;100.00;100745.22;4184443;28;21125;-66
2023/12/08 00:31:31;;;;;;;67.60;24.27;;;;;;;-3.27;100.00;100729.47;4179680;28;20244;-65
2023/12/08 00:33:58;;;;;;;69.40;24.90;;;;;;;-3.30;100.00;100743.69;4179405;28;20241;-65
2023/12/08 00:36:25;;;;;;;72.03;25.90;;;;;;;-3.36;100.00;100735.94;4179655;28;20452;-67
2023/12/08 00:38:51;;;;;;;71.13;25.10;;;;;;;-3.34;100.00;100739.38;4185347;28;20237;-66
2023/12/08 00:41:18;;;;;;;68.93;26.10;;;;;;;-3.38;100.00;100735.13;4185147;28;20403;-65
2023/12/08 00:43:45;;;;;;;71.30;24.27;;;;;;;-3.24;100.00;100743.47;4182606;28;20229;-68
2023/12/08 00:46:15;;;;;;;74.33;26.20;;;;;;;-3.31;100.00;100734.00;4172521;28;20260;-65
2023/12/08 00:48:42;;;;;;;78.33;24.83;;;;;;;-3.29;100.00;100732.19;4180298;28;21194;-67
2023/12/08 00:51:12;;;;;;;68.17;24.80;;;;;;;-3.32;100.00;100731.41;4183359;28;20253;-66
2023/12/08 00:53:41;;;;;;;68.87;24.80;;;;;;;-3.39;100.00;100725.44;4180923;28;23519;-65
2023/12/08 00:56:09;;;;;;;64.97;24.13;;;;;;;-3.42;100.00;100734.38;4176027;28;21096;-65
2023/12/08 00:58:37;;;;;;;69.60;24.53;;;;;;;-3.42;100.00;100730.84;4198865;28;22106;-66
2023/12/08 01:01:04;;;;;;;65.93;24.17;;;;;;;-3.50;100.00;100736.41;4172854;28;20249;-67
2023/12/08 01:03:31;;;;;;;68.97;25.00;;;;;;;-3.50;100.00;100726.66;4192968;28;20688;-66
2023/12/08 01:05:58;;;;;;;64.73;23.83;;;;;;;-3.51;100.00;100726.72;4186829;28;20347;-65
2023/12/08 01:08:25;;;;;;;67.13;24.33;;;;;;;-3.45;100.00;100750.34;4189016;28;23123;-67
2023/12/08 01:10:51;;;;;;;67.93;25.20;;;;;;;-3.53;100.00;100755.88;4199814;28;20237;-64
2023/12/08 01:13:19;;;;;;;63.23;23.37;;;;;;;-3.56;100.00;100749.81;4181595;28;20285;-65
2023/12/08 01:15:46;;;;;;;68.40;23.77;;;;;;;-3.45;100.00;100754.78;4181633;28;20299;-68
2023/12/08 01:18:13;;;;;;;64.40;24.33;;;;;;;-3.42;100.00;100773.19;4169591;28;20910;-68
2023/12/08 01:20:40;;;;;;;69.60;24.97;;;;;;;-3.46;100.00;100777.72;4182333;28;20676;-65
2023/12/08 01:23:07;;;;;;;69.60;24.93;;;;;;;-3.47;100.00;100762.75;4170569;28;20285;-65
2023/12/08 01:25:34;;;;;;;67.80;24.63;;;;;;;-3.52;100.00;100752.34;4178135;28;20312;-65
2023/12/08 01:28:01;;;;;;;62.70;23.77;;;;;;;-3.42;100.00;100737.00;4183485;28;21135;-65
2023/12/08 01:30:27;;;;;;;65.23;23.80;;;;;;;-3.62;100.00;100740.31;4182279;28;20242;-64
2023/12/08 01:32:54;;;;;;;69.03;23.83;;;;;;;-3.69;100.00;100742.25;4184719;28;20295;-66
2023/12/08 01:35:21;;;;;;;72.80;24.87;;;;;;;-3.70;100.00;100755.56;4185869;28;20235;-66
2023/12/08 01:37:47;;;;;;;69.10;24.00;;;;;;;-3.63;100.00;100749.16;4179677;28;21233;-65
2023/12/08 01:40:15;;;;;;;75.93;25.13;;;;;;;-3.65;100.00;100753.63;4170360;28;20284;-66
2023/12/08 01:42:44;;;;;;;74.70;25.33;;;;;;;-3.62;100.00;100748.25;4189319;28;20304;-68
2023/12/08 01:45:11;;;;;;;66.93;24.40;;;;;;;-3.67;100.00;100761.59;4180947;28;20241;-64
2023/12/08 01:47:39;;;;;;;66.13;24.90;;;;;;;-3.62;100.00;100753.53;4197190;28;20736;-65
2023/12/08 01:50:07;;;;;;;67.17;25.07;;;;;;;-3.72;100.00;100739.72;4183314;28;20306;-65
2023/12/08 01:52:36;;;;;;;62.77;22.67;;;;;;;-3.63;100.00;100741.22;4175080;28;20249;-66
2023/12/08 01:55:03;;;;;;;73.97;23.27;;;;;;;-3.67;100.00;100742.25;4182067;28;20261;-65
2023/12/08 01:57:29;;;;;;;76.77;25.90;;;;;;;-3.67;100.00;100752.81;4185588;28;20300;-68
2023/12/08 01:59:58;;;;;;;67.43;22.90;;;;;;;-3.59;100.00;100757.84;4186061;28;20242;-66
2023/12/08 02:02:25;;;;;;;62.47;22.77;;;;;;;-3.64;99.89;100752.69;4189145;28;21940;-65
2023/12/08 02:04:56;;;;;;;69.33;22.63;;;;;;;-3.68;99.78;100745.78;4183834;28;21847;-66
2023/12/08 02:07:24;;;;;;;64.83;23.07;;;;;;;-3.69;99.73;100742.25;4183196;28;23502;-66
2023/12/08 02:09:52;;;;;;;60.53;21.37;;;;;;;-3.80;99.36;100741.75;4179582;28;20785;-65
2023/12/08 02:12:18;;;;;;;66.57;22.87;;;;;;;-3.88;99.68;100734.03;4198379;28;20274;-65
2023/12/08 02:14:50;;;;;;;65.63;22.50;;;;;;;-3.90;99.47;100727.97;4179827;28;20350;-65
2023/12/08 02:17:24;;;;;;;67.77;21.23;;;;;;;-3.84;100.00;100734.81;4184342;28;21512;-65
2023/12/08 02:19:51;;;;;;;65.27;21.87;;;;;;;-3.86;99.37;100728.72;4175965;28;20230;-66
2023/12/08 02:22:22;;;;;;;61.57;22.03;;;;;;;-3.85;99.50;100718.09;4182934;28;21726;-65
2023/12/08 02:24:48;;;;;;;59.93;22.10;;;;;;;-3.86;99.49;100718.16;4187789;28;20229;-66
2023/12/08 02:27:15;;;;;;;62.47;21.87;;;;;;;-3.84;99.57;100717.19;4179306;28;20230;-68
2023/12/08 02:29:42;;;;;;;66.27;21.90;;;;;;;-3.85;99.22;100739.25;4182983;28;20497;-68
2023/12/08 02:32:17;;;;;;;61.40;21.87;;;;;;;-3.88;99.31;100730.53;4185508;28;22191;-68
2023/12/08 02:34:46;;;;;;;59.47;21.57;;;;;;;-3.83;99.21;100741.84;4187139;28;20232;-66
2023/12/08 02:37:14;;;;;;;61.30;22.37;;;;;;;-3.82;99.50;100733.88;4182105;28;23626;-66
2023/12/08 02:39:43;;;;;;;67.35;22.15;;;;;;;-3.86;99.94;100745.44;4183813;28;21635;-50
2023/12/08 02:42:11;;;;;;;66.00;21.97;;;;;;;-3.88;98.97;100743.78;4191494;28;20237;-72
2023/12/08 02:44:38;;;;;;;67.23;23.43;;;;;;;-3.91;98.89;100743.84;4193403;28;20264;-72
2023/12/08 02:47:05;;;;;;;72.10;22.73;;;;;;;-3.96;98.64;100738.69;4189358;28;20275;-71
2023/12/08 02:49:33;;;;;;;68.63;21.70;;;;;;;-3.92;99.11;100742.13;4190121;28;20350;-71
2023/12/08 02:51:59;;;;;;;74.47;22.80;;;;;;;-3.99;99.04;100734.38;4179963;28;20248;-70
2023/12/08 02:54:26;;;;;;;74.77;21.83;;;;;;;-4.00;98.55;100727.34;4186833;28;20346;-70
2023/12/08 02:56:53;;;;;;;68.20;21.80;;;;;;;-3.99;98.70;100737.03;4188859;28;20352;-72
2023/12/08 02:59:19;;;;;;;72.47;21.50;;;;;;;-3.96;98.70;100737.84;4193224;28;22491;-71
2023/12/08 03:01:46;;;;;;;68.60;21.97;;;;;;;-3.95;98.33;100736.94;4190378;28;20628;-70
2023/12/08 03:04:13;;;;;;;62.37;20.73;;;;;;;-3.98;98.40;100719.41;4193646;28;20238;-71
2023/12/08 03:06:39;;;;;;;61.20;21.43;;;;;;;-3.97;98.17;100723.78;4187701;28;20241;-73
2023/12/08 03:09:06;;;;;;;69.37;22.63;;;;;;;-4.03;98.56;100727.47;4193450;28;21170;-70
2023/12/08 03:11:33;;;;;;;68.23;22.57;;;;;;;-3.97;98.54;100739.63;4191158;28;20260;-73
2023/12/08 03:14:00;;;;;;;64.63;20.60;;;;;;;-3.94;98.49;100749.25;4211352;28;20237;-72
2023/12/08 03:16:27;;;;;;;66.70;20.90;;;;;;;-3.86;98.61;100758.69;4187518;28;20321;-70
2023/12/08 03:18:53;;;;;;;61.37;21.80;;;;;;;-3.78;98.02;100749.63;4184614;28;21786;-70
2023/12/08 03:21:23;;;;;;;67.07;21.10;;;;;;;-3.87;97.65;100754.28;4182571;28;20233;-70
2023/12/08 03:23:51;;;;;;;70.50;22.37;;;;;;;-3.87;98.19;100756.09;4202509;28;21364;-72
2023/12/08 03:26:18;;;;;;;61.27;20.60;;;;;;;-3.89;97.89;100761.41;4200089;28;20233;-70
2023/12/08 03:28:45;;;;;;;61.40;20.27;;;;;;;-3.90;97.83;100769.38;4209388;28;20327;-70
2023/12/08 03:31:26;;;;;;;61.33;20.00;;;;;;;-3.96;98.17;100766.94;4192291;28;20292;-70
2023/12/08 03:33:53;;;;;;;62.00;20.73;;;;;;;-3.96;97.95;100767.78;4188881;28;21511;-70
2023/12/08 03:36:20;;;;;;;68.00;21.53;;;;;;;-3.94;98.15;100757.19;4178387;28;20343;-72
2023/12/08 03:38:47;;;;;;;64.60;21.87;;;;;;;-3.96;98.27;100757.22;4185949;28;20589;-71
2023/12/08 03:41:14;;;;;;;82.27;23.17;;;;;;;-4.01;97.96;100765.31;4187722;28;23245;-70
2023/12/08 03:43:41;;;;;;;67.53;21.93;;;;;;;-3.97;98.51;100763.44;4205287;28;20296;-70
2023/12/08 03:46:09;;;;;;;65.37;21.93;;;;;;;-3.93;98.69;100762.44;4180178;28;20296;-73
2023/12/08 03:48:38;;;;;;;71.20;21.43;;;;;;;-3.99;98.27;100757.31;4185664;28;20328;-71
2023/12/08 03:51:05;;;;;;;70.00;22.27;;;;;;;-3.99;98.90;100758.19;4205671;28;20263;-72
2023/12/08 03:53:32;;;;;;;61.03;21.30;;;;;;;-3.97;98.86;100750.22;4190629;28;26547;-73
2023/12/08 03:55:59;;;;;;;64.15;21.00;;;;;;;-3.99;99.40;100744.97;4203492;28;20247;-72
2023/12/08 03:58:27;;;;;;;67.93;22.20;;;;;;;-3.95;98.96;100745.72;4176735;28;20237;-73
2023/12/08 04:00:54;;;;;;;73.20;23.20;;;;;;;-3.98;99.28;100748.47;4185113;28;20260;-70
2023/12/08 04:03:21;;;;;;;75.97;22.37;;;;;;;-4.03;99.83;100747.75;4194621;28;20231;-70
2023/12/08 04:05:48;;;;;;;79.47;24.73;;;;;;;-4.05;99.58;100750.44;4187195;28;20307;-70
2023/12/08 04:08:15;;;;;;;70.37;23.73;;;;;;;-4.11;99.79;100747.97;4186636;28;22890;-72
2023/12/08 04:10:41;;;;;;;75.80;24.30;;;;;;;-4.10;99.88;100748.84;4183632;28;20246;-70
2023/12/08 04:13:09;;;;;;;75.03;22.83;;;;;;;-4.11;99.91;100745.34;4202000;28;21135;-71
2023/12/08 04:15:36;;;;;;;82.20;24.40;;;;;;;-4.07;100.00;100743.47;4187340;28;22781;-70
2023/12/08 04:18:03;;;;;;;69.75;22.25;;;;;;;-4.08;100.00;100745.25;4180235;28;20266;-71
2023/12/08 04:20:31;;;;;;;74.00;24.70;;;;;;;-4.06;99.85;100748.69;4207143;28;20255;-70
2023/12/08 04:22:58;;;;;;;81.90;23.87;;;;;;;-4.12;99.91;100748.03;4188939;28;20298;-70
2023/12/08 04:25:25;;;;;;;78.63;23.87;;;;;;;-4.13;100.00;100752.44;4175365;28;20248;-71
2023/12/08 04:27:51;;;;;;;73.87;22.87;;;;;;;-4.19;100.00;100736.78;4188141;28;22578;-68
2023/12/08 04:30:18;;;;;;;78.27;24.77;;;;;;;-4.15;100.00;100736.63;4192302;28;20268;-69
2023/12/08 04:32:45;;;;;;;85.77;25.27;;;;;;;-4.15;100.00;100734.00;4186457;28;20230;-72
2023/12/08 04:35:11;;;;;;;74.83;22.63;;;;;;;-4.11;100.00;100721.53;4187233;28;20351;-70
2023/12/08 04:37:38;;;;;;;79.50;23.97;;;;;;;-4.15;100.00;100726.06;4194029;28;22878;-70
2023/12/08 04:40:05;;;;;;;86.33;25.80;;;;;;;-4.19;100.00;100728.84;4189221;28;20238;-69
2023/12/08 04:42:34;;;;;;;91.80;26.57;;;;;;;-4.15;100.00;100733.09;4188781;28;26444;-70
2023/12/08 04:45:00;;;;;;;88.27;26.13;;;;;;;-4.08;100.00;100728.50;4201922;28;20389;-72
2023/12/08 04:47:27;;;;;;;92.47;26.40;;;;;;;-4.17;100.00;100717.31;4192389;28;20237;-69
2023/12/08 04:49:54;;;;;;;95.67;26.43;;;;;;;-4.12;100.00;100721.59;4172774;28;20290;-70
2023/12/08 04:52:21;;;;;;;94.00;26.53;;;;;;;-4.08;100.00;100720.59;4182762;28;20237;-71
2023/12/08 04:54:48;;;;;;;88.33;26.20;;;;;;;-4.04;100.00;100720.44;4185919;28;20234;-70
2023/12/08 04:57:14;;;;;;;85.13;26.47;;;;;;;-4.02;100.00;100715.97;4188712;28;20249;-70
2023/12/08 04:59:41;;;;;;;83.30;26.27;;;;;;;-4.03;100.00;100726.59;4190252;28;20355;-71
2023/12/08 05:02:09;;;;;;;91.60;27.10;;;;;;;-4.11;100.00;100724.19;4197841;28;23085;-70
2023/12/08 05:04:36;;;;;;;85.37;25.07;;;;;;;-4.02;100.00;100720.38;4185065;28;20238;-69
2023/12/08 05:07:03;;;;;;;86.77;27.10;;;;;;;-4.01;100.00;100720.38;4188174;28;21702;-70
2023/12/08 05:09:29;;;;;;;94.67;27.43;;;;;;;-4.07;100.00;100717.88;4189511;28;23874;-71
2023/12/08 05:11:56;;;;;;;81.13;26.00;;;;;;;-4.06;100.00;100713.47;4196232;28;20272;-70
2023/12/08 05:14:23;;;;;;;89.57;26.60;;;;;;;-4.12;100.00;100724.25;4176155;28;20255;-69
2023/12/08 05:16:50;;;;;;;78.10;25.73;;;;;;;-4.05;100.00;100726.63;4191627;28;20359;-70
2023/12/08 05:19:16;;;;;;;88.37;26.20;;;;;;;-4.07;100.00;100733.75;4189093;28;21694;-70
2023/12/08 05:21:43;;;;;;;89.97;25.93;;;;;;;-4.05;100.00;100731.94;4193367;28;20238;-70
2023/12/08 05:24:10;;;;;;;86.87;25.93;;;;;;;-4.04;100.00;100738.94;4189255;28;20229;-68
2023/12/08 05:26:37;;;;;;;88.17;26.20;;;;;;;-3.99;100.00;100731.72;4178164;28;20440;-71
2023/12/08 05:29:03;;;;;;;79.63;25.60;;;;;;;-4.02;100.00;100723.91;4185734;28;21133;-71
2023/12/08 05:31:30;;;;;;;86.60;26.00;;;;;;;-4.01;99.64;100724.75;4175511;28;20241;-70
2023/12/08 05:33:57;;;;;;;77.60;26.53;;;;;;;-3.91;99.32;100726.22;4186080;28;21188;-69
2023/12/08 05:36:25;;;;;;;86.10;26.73;;;;;;;-3.97;99.04;100723.78;4185707;28;22926;-72
2023/12/08 05:38:51;;;;;;;77.93;25.67;;;;;;;-3.95;98.99;100724.56;4188989;28;20675;-69
2023/12/08 05:41:18;;;;;;;79.13;25.97;;;;;;;-3.98;98.86;100725.53;4185123;28;21432;-69
2023/12/08 05:43:46;;;;;;;87.70;27.17;;;;;;;-3.95;98.43;100721.06;4176833;28;20281;-71
2023/12/08 05:46:13;;;;;;;79.33;25.20;;;;;;;-4.00;98.76;100719.41;4191289;28;20294;-70
2023/12/08 05:48:40;;;;;;;81.27;25.87;;;;;;;-4.00;98.74;100708.84;4183593;28;20221;-70
2023/12/08 05:51:07;;;;;;;80.60;26.60;;;;;;;-4.03;98.62;100711.59;4188375;28;21526;-70
2023/12/08 05:53:34;;;;;;;89.57;27.67;;;;;;;-3.99;99.26;100709.72;4187938;28;20390;-70
2023/12/08 05:56:03;;;;;;;84.27;24.93;;;;;;;-3.98;99.20;100701.72;4182266;28;20796;-69
2023/12/08 05:58:30;;;;;;;88.90;27.53;;;;;;;-3.99;99.15;100693.84;4189694;28;20284;-71
2023/12/08 06:00:56;;;;;;;83.67;26.00;;;;;;;-4.00;98.74;100692.13;4184305;28;20313;-72
2023/12/08 06:03:23;;;;;;;84.93;26.23;;;;;;;-4.08;98.80;100702.06;4187384;28;20237;-69
2023/12/08 06:05:50;;;;;;;85.07;27.43;;;;;;;-4.05;98.87;100699.34;4187281;28;21161;-69
2023/12/08 06:08:17;;;;;;;82.03;26.00;;;;;;;-4.05;98.28;100702.00;4182669;28;20249;-71
2023/12/08 06:10:44;;;;;;;86.83;25.37;;;;;;;-4.07;98.56;100701.16;4184879;28;20329;-71
2023/12/08 06:13:13;;;;;;;83.37;27.10;;;;;;;-4.05;98.29;100696.69;4187065;28;20297;-71
2023/12/08 06:15:39;;;;;;;82.27;25.07;;;;;;;-4.07;98.38;100711.75;4188593;28;20239;-69
2023/12/08 06:18:06;;;;;;;80.20;24.97;;;;;;;-4.07;98.50;100707.31;4187821;28;20233;-71
2023/12/08 06:20:33;;;;;;;81.03;25.53;;;;;;;-4.02;98.44;100709.81;4168964;28;21752;-69
2023/12/08 06:23:00;;;;;;;99.57;27.83;;;;;;;-4.05;98.00;100704.63;4195729;28;20329;-68
2023/12/08 06:25:27;;;;;;;85.97;27.00;;;;;;;-4.08;98.36;100712.66;4191900;28;21526;-71
2023/12/08 06:27:53;;;;;;;100.73;27.20;;;;;;;-4.16;98.23;100708.47;4188733;28;20367;-73
2023/12/08 06:30:20;;;;;;;82.70;26.17;;;;;;;-4.13;98.69;100704.84;4191282;28;20236;-73
2023/12/08 06:32:47;;;;;;;95.77;28.70;;;;;;;-4.14;98.13;100708.41;4188832;28;20237;-72
2023/12/08 06:35:14;;;;;;;90.87;25.77;;;;;;;-4.14;98.21;100698.72;4183311;28;20238;-70
2023/12/08 06:37:40;;;;;;;85.43;25.17;;;;;;;-4.06;98.36;100701.09;4193227;28;20273;-71
2023/12/08 06:40:09;;;;;;;81.50;24.97;;;;;;;-4.14;98.47;100697.84;4184835;28;20239;-75
2023/12/08 06:42:36;;;;;;;89.30;26.33;;;;;;;-4.13;98.87;100694.28;4185930;28;20243;-74
2023/12/08 06:45:03;;;;;;;82.83;26.07;;;;;;;-4.01;98.63;100706.25;4195912;28;21617;-68
2023/12/08 06:47:30;;;;;;;86.27;24.97;;;;;;;-4.00;98.32;100692.97;4208282;28;20230;-69
2023/12/08 06:49:57;;;;;;;93.03;27.20;;;;;;;-4.00;97.67;100690.34;4179360;28;20588;-69
2023/12/08 06:52:24;;;;;;;77.20;25.90;;;;;;;-4.02;98.22;100694.81;4188741;28;20245;-71
2023/12/08 06:54:51;;;;;;;85.77;27.03;;;;;;;-3.96;98.25;100688.44;4197059;28;21568;-69
2023/12/08 06:57:19;;;;;;;82.80;25.53;;;;;;;-4.00;98.16;100697.41;4188462;28;22081;-73
2023/12/08 06:59:46;;;;;;;83.57;27.80;;;;;;;-4.01;97.58;100704.50;4200773;28;20424;-70
2023/12/08 07:02:13;;;;;;;84.27;26.40;;;;;;;-3.96;98.13;100690.25;4240148;28;20342;-70
2023/12/08 07:04:40;;;;;;;84.17;26.97;;;;;;;-4.02;97.70;100683.38;4227344;28;20778;-68
2023/12/08 07:07:07;;;;;;;91.50;28.40;;;;;;;-4.02;97.78;100683.38;4205439;28;20235;-71
2023/12/08 07:09:34;;;;;;;94.20;29.07;;;;;;;-4.03;97.93;100685.16;4203444;28;20497;-72
2023/12/08 07:12:02;;;;;;;90.67;28.10;;;;;;;-4.03;97.73;100676.34;4198903;28;21700;-73
2023/12/08 07:14:29;;;;;;;84.20;25.93;;;;;;;-3.98;97.43;100675.28;4200190;28;21288;-70
2023/12/08 07:16:56;;;;;;;86.77;26.00;;;;;;;-3.96;97.40;100691.09;4181638;28;22580;-74
2023/12/08 07:19:22;;;;;;;88.93;27.10;;;;;;;-3.91;96.57;100693.59;4194165;28;22203;-70
2023/12/08 07:21:49;;;;;;;79.33;25.77;;;;;;;-3.98;97.01;100683.22;4190242;28;20241;-70
2023/12/08 07:24:16;;;;;;;95.17;28.27;;;;;;;-3.99;96.89;100696.50;4206117;28;21568;-70
2023/12/08 07:26:43;;;;;;;95.93;28.10;;;;;;;-4.00;96.99;100698.25;4182546;28;25585;-73
2023/12/08 07:29:10;;;;;;;88.17;27.30;;;;;;;-4.05;97.35;100699.34;4201288;28;20658;-69
2023/12/08 07:31:37;;;;;;;93.47;27.00;;;;;;;-3.98;97.46;100701.72;4203262;28;20239;-76
2023/12/08 07:34:03;;;;;;;97.20;29.73;;;;;;;-3.97;97.23;100699.97;4211346;28;20252;-71
2023/12/08 07:36:30;;;;;;;91.40;27.87;;;;;;;-3.97;97.09;100699.97;4194789;28;20248;-69
2023/12/08 07:38:58;;;;;;;93.70;29.00;;;;;;;-3.94;96.79;100697.22;4178864;28;20243;-70
2023/12/08 07:41:25;;;;;;;90.97;29.37;;;;;;;-4.01;96.98;100704.50;4182137;28;20876;-73
2023/12/08 07:43:54;;;;;;;85.43;27.30;;;;;;;-4.03;97.09;100706.31;4196951;28;20237;-70
2023/12/08 07:46:23;;;;;;;88.10;28.67;;;;;;;-4.02;97.06;100712.44;4188588;28;21743;-71
2023/12/08 07:48:50;;;;;;;84.97;27.50;;;;;;;-4.04;96.79;100709.00;4179951;28;21751;-70
2023/12/08 07:51:17;;;;;;;93.23;28.83;;;;;;;-3.98;96.97;100717.59;4186629;28;22694;-74
2023/12/08 07:53:45;;;;;;;90.77;26.57;;;;;;;-3.97;96.86;100718.50;4180928;28;21055;-74
2023/12/08 07:56:13;;;;;;;91.77;26.27;;;;;;;-3.95;96.68;100721.94;4188716;28;20237;-71
2023/12/08 07:58:39;;;;;;;90.47;27.10;;;;;;;-3.95;96.81;100727.22;4188591;28;25193;-73
2023/12/08 08:01:06;;;;;;;93.80;27.97;;;;;;;-3.96;96.20;100720.19;4170571;28;22128;-71
2023/12/08 08:03:33;;;;;;;86.40;27.03;;;;;;;-3.97;96.39;100715.84;4183423;28;20312;-72
2023/12/08 08:06:00;;;;;;;89.40;26.80;;;;;;;-3.91;96.30;100713.00;4190166;28;20524;-71
2023/12/08 08:08:27;;;;;;;89.43;26.93;;;;;;;-3.91;96.53;100697.13;4205309;28;20467;-71
2023/12/08 08:10:53;;;;;;;95.13;27.70;;;;;;;-3.89;96.15;100705.84;4195750;28;20244;-68
2023/12/08 08:13:20;;;;;;;88.40;27.77;;;;;;;-3.94;96.55;100718.38;4200731;28;20289;-73
2023/12/08 08:15:47;;;;;;;84.97;26.80;;;;;;;-3.90;96.23;100708.56;4182437;28;20225;-70
2023/12/08 08:18:14;;;;;;;86.53;26.57;;;;;;;-3.80;96.23;100706.47;4175458;28;20380;-71
2023/12/08 08:20:40;;;;;;;83.87;25.87;;;;;;;-3.77;95.80;100704.59;4179494;28;25418;-71
2023/12/08 08:23:07;;;;;;;89.30;27.03;;;;;;;-3.88;95.86;100715.53;4189734;28;20249;-69
2023/12/08 08:25:34;;;;;;;91.47;27.20;;;;;;;-3.78;96.07;100720.53;4188443;28;20233;-71
2023/12/08 08:28:01;;;;;;;76.73;25.50;;;;;;;-3.76;95.90;100719.56;4186615;28;22164;-72
2023/12/08 08:30:27;;;;;;;90.27;27.77;;;;;;;-3.64;95.41;100722.75;4191785;28;21159;-74
2023/12/08 08:32:54;;;;;;;79.37;25.93;;;;;;;-3.59;94.99;100723.47;4187840;28;21887;-71
2023/12/08 08:35:21;;;;;;;89.37;27.37;;;;;;;-3.72;95.25;100721.22;4179121;28;20254;-72
2023/12/08 08:37:48;;;;;;;79.60;26.93;;;;;;;-3.76;95.18;100726.66;4186492;28;22903;-70
2023/12/08 08:40:15;;;;;;;86.97;29.00;;;;;;;-3.79;95.45;100722.31;4189961;28;20261;-69
2023/12/08 08:42:42;;;;;;;86.77;27.23;;;;;;;-3.71;95.36;100725.59;4174350;28;23580;-69
2023/12/08 08:45:09;;;;;;;87.43;27.37;;;;;;;-3.72;95.03;100717.69;4168932;28;20308;-74
2023/12/08 08:47:36;;;;;;;84.43;28.77;;;;;;;-3.72;94.85;100721.22;4186060;28;23486;-73
2023/12/08 08:50:03;;;;;;;93.37;28.50;;;;;;;-3.58;94.79;100733.13;4183940;28;20311;-71
2023/12/08 08:52:30;;;;;;;91.00;27.70;;;;;;;-3.61;94.97;100738.50;4180667;28;20309;-71
2023/12/08 08:54:57;;;;;;;91.00;27.80;;;;;;;-3.66;94.62;100736.00;4185800;28;22328;-71
2023/12/08 08:57:24;;;;;;;96.70;29.03;;;;;;;-3.56;93.96;100737.44;4184601;28;20378;-73
2023/12/08 08:59:51;;;;;;;79.93;26.27;;;;;;;-3.56;94.17;100742.75;4192311;28;20758;-76
2023/12/08 09:02:17;;;;;;;84.57;27.43;;;;;;;-3.57;94.01;100735.72;4194134;28;22277;-75
2023/12/08 09:04:44;;;;;;;86.53;28.00;;;;;;;-3.55;94.46;100733.03;4183890;28;20241;-73
2023/12/08 09:07:11;;;;;;;96.20;27.63;;;;;;;-3.57;94.41;100735.72;4182210;28;20398;-68
2023/12/08 09:09:38;;;;;;;83.67;28.27;;;;;;;-3.58;94.28;100727.84;4190429;28;21676;-73
2023/12/08 09:12:10;;;;;;;81.50;27.33;;;;;;;-3.44;94.51;100719.47;4196528;28;20260;-70
2023/12/08 09:14:38;;;;;;;84.33;26.47;;;;;;;-3.44;94.13;100707.06;4182404;28;21770;-70
2023/12/08 09:17:05;;;;;;;87.47;27.93;;;;;;;-3.49;93.92;100706.38;4195016;28;20237;-73
2023/12/08 09:19:32;;;;;;;80.90;26.97;;;;;;;-3.45;94.23;100702.69;4186969;28;24237;-74
2023/12/08 09:21:59;;;;;;;87.77;26.47;;;;;;;-3.43;93.96;100692.94;4199000;28;20605;-72
2023/12/08 09:24:26;;;;;;;86.47;28.33;;;;;;;-3.32;93.58;100689.91;4190712;28;22853;-72
2023/12/08 09:26:53;;;;;;;84.67;27.13;;;;;;;-3.33;93.47;100684.69;4185961;28;20305;-71
2023/12/08 09:29:21;;;;;;;90.53;28.53;;;;;;;-3.31;93.64;100686.34;4176436;28;21331;-69
2023/12/08 09:31:48;;;;;;;98.00;31.07;;;;;;;-3.25;93.50;100690.56;4184704;28;20604;-72
2023/12/08 09:34:16;;;;;;;92.73;28.60;;;;;;;-3.14;93.36;100692.84;4186879;28;20236;-71
2023/12/08 09:36:44;;;;;;;93.17;29.57;;;;;;;-3.09;92.95;100685.59;4185847;28;20245;-70
2023/12/08 09:39:32;;;;;;;88.67;29.53;;;;;;;-3.27;92.87;100661.50;4188258;28;20236;-71
2023/12/08 09:42:10;;;;;;;91.60;28.57;;;;;;;-3.17;93.08;100672.63;4186458;28;20404;-69
2023/12/08 09:44:37;;;;;;;91.10;28.93;;;;;;;-3.20;92.85;100665.66;4184721;28;20231;-69
2023/12/08 09:47:08;;;;;;;93.47;28.67;;;;;;;-3.25;93.16;100672.91;4190109;28;20498;-71
2023/12/08 09:49:40;;;;;;;98.97;30.30;;;;;;;-3.23;93.05;100665.78;4185758;28;20244;-70
2023/12/08 09:52:09;;;;;;;91.37;29.07;;;;;;;-3.30;92.84;100677.50;4182157;28;20236;-70
2023/12/08 09:54:35;;;;;;;92.43;31.33;;;;;;;-3.16;92.55;100676.16;4184939;28;20392;-70
2023/12/08 09:57:03;;;;;;;95.50;30.90;;;;;;;-3.31;92.99;100675.75;4183631;28;20238;-72
2023/12/08 09:59:30;;;;;;;96.03;30.20;;;;;;;-3.35;93.59;100680.28;4179375;28;22529;-71
2023/12/08 10:01:58;;;;;;;94.87;28.77;;;;;;;-3.14;93.51;100679.63;4180391;28;20287;-71
2023/12/08 10:04:26;;;;;;;97.70;29.83;;;;;;;-3.15;93.07;100677.88;4188333;28;20347;-70
2023/12/08 10:06:56;;;;;;;95.70;31.17;;;;;;;-3.23;93.25;100680.78;4175545;28;20244;-72
2023/12/08 10:09:22;;;;;;;93.40;28.27;;;;;;;-3.20;92.73;100675.38;4173426;28;23538;-71
2023/12/08 10:11:50;;;;;;;103.63;31.27;;;;;;;-3.22;92.84;100679.88;4183711;28;22824;-70
2023/12/08 10:14:19;;;;;;;102.60;29.33;;;;;;;-3.21;93.12;100686.91;4186401;28;20389;-73
2023/12/08 10:16:47;;;;;;;87.97;28.87;;;;;;;-3.19;93.06;100680.63;4172454;28;20232;-71
2023/12/08 10:19:14;;;;;;;97.97;30.33;;;;;;;-3.16;92.95;100674.34;4183944;28;20239;-68
2023/12/08 10:21:41;;;;;;;90.57;29.33;;;;;;;-3.08;93.39;100674.94;4201935;28;20245;-69
2023/12/08 10:24:12;;;;;;;88.27;28.53;;;;;;;-2.91;92.51;100682.28;4190636;28;23673;-73
2023/12/08 10:26:39;;;;;;;88.13;29.93;;;;;;;-2.92;91.71;100674.41;4187824;28;20237;-68
2023/12/08 10:29:06;;;;;;;93.07;31.33;;;;;;;-3.05;91.71;100668.66;4195252;28;20246;-69
2023/12/08 10:31:32;;;;;;;93.57;30.03;;;;;;;-3.02;92.26;100664.13;4185504;28;20245;-74
2023/12/08 10:33:59;;;;;;;95.10;30.83;;;;;;;-2.96;92.57;100670.16;4189653;28;20241;-71
2023/12/08 10:36:27;;;;;;;89.30;29.40;;;;;;;-2.94;92.01;100661.22;4189994;28;20285;-72
2023/12/08 10:38:53;;;;;;;98.80;30.13;;;;;;;-2.89;92.27;100656.59;4195071;28;20230;-71
2023/12/08 10:41:20;;;;;;;92.80;30.80;;;;;;;-2.81;92.25;100650.16;4189296;28;21448;-71
2023/12/08 10:43:47;;;;;;;99.57;31.80;;;;;;;-2.83;91.62;100638.78;4190415;28;23479;-69
2023/12/08 10:46:14;;;;;;;84.77;28.77;;;;;;;-2.85;91.97;100630.88;4185624;28;20241;-70
2023/12/08 10:48:41;;;;;;;96.27;30.10;;;;;;;-2.79;91.97;100627.13;4184646;28;20247;-70
2023/12/08 10:51:13;;;;;;;85.50;28.03;;;;;;;-2.81;91.39;100618.38;4183381;28;20355;-71
2023/12/08 10:53:41;;;;;;;89.37;28.67;;;;;;;-2.81;91.43;100613.06;4181780;28;20294;-68
2023/12/08 10:56:11;;;;;;;98.30;31.13;;;;;;;-2.76;91.48;100625.22;4174815;28;20309;-71
2023/12/08 10:58:43;;;;;;;94.63;30.63;;;;;;;-2.67;90.65;100615.22;4194397;28;20255;-71
2023/12/08 11:01:14;;;;;;;98.23;28.30;;;;;;;-2.64;90.62;100610.66;4183601;28;20233;-70
2023/12/08 11:03:43;;;;;;;94.20;29.67;;;;;;;-2.68;91.01;100616.13;4191090;28;20240;-70
2023/12/08 11:06:28;;;;;;;96.83;29.93;;;;;;;-2.56;90.47;100618.28;4185686;28;20299;-69
2023/12/08 11:09:01;;;;;;;85.80;28.73;;;;;;;-2.46;90.09;100614.38;4193565;28;20719;-70